Attleboro Falls, Massachusetts
Current Conditions -  °F | °C
As of 12:55 PM on Monday 22 Dec 2014 (Local Time) from KSFZ Reporting Station
Overcast Overcast  
Wind Chill: 39°   Ceiling: 1200
Heat Index: 39°   Visibility: 10mi
Dew Point: 30°   Wind: 3mph
Humidity: 70%   Direction: 360°N
Pressure: 30.33"   Gusts: NA
Location:  41.97°N, 71.32°W
Report Text: KSFZ 221755Z 36003KT 10SM OVC012 04/M01 A3033 RMK AO1 60001 10040 20000 57010
Loading
Personal Weather Stations






























Interactive Weather Map New forecast layout! Learn more

10-Day Weather Forecast

Advertisements
Track Severe Weather on mobile